createdAt,value
2018-09-22T00:02:01.090Z,87.51
2018-09-22T00:04:29.834Z,87.46
2018-09-22T00:06:58.991Z,87.55
2018-09-22T00:09:27.793Z,87.24
2018-09-22T00:11:56.568Z,87.14
2018-09-22T00:14:25.334Z,87.22
2018-09-22T00:16:54.171Z,87.18
2018-09-22T00:19:23.081Z,87.22
2018-09-22T00:21:52.284Z,87.16
2018-09-22T00:24:21.154Z,86.95
2018-09-22T00:26:49.943Z,87.54
2018-09-22T00:29:18.820Z,87.49
2018-09-22T00:31:47.806Z,87.52
2018-09-22T00:34:16.706Z,87.45
2018-09-22T00:36:45.365Z,87.65
2018-09-22T00:39:13.981Z,87.63
2018-09-22T00:41:43.192Z,87.64
2018-09-22T00:44:11.968Z,87.65
2018-09-22T00:46:40.777Z,87.61
2018-09-22T00:49:09.472Z,87.64
2018-09-22T00:51:38.231Z,87.83
2018-09-22T00:54:07.092Z,87.64
2018-09-22T00:56:35.750Z,87.48
2018-09-22T00:59:04.624Z,87.44
2018-09-22T01:01:33.464Z,87.44
2018-09-22T01:04:02.358Z,87.48
2018-09-22T01:06:31.223Z,87.39
2018-09-22T01:09:00.011Z,86.96
2018-09-22T01:11:29.037Z,87.31
2018-09-22T01:13:57.803Z,87.61
2018-09-22T01:16:26.619Z,87.71
2018-09-22T01:18:55.364Z,87.50
2018-09-22T01:21:24.295Z,87.47
2018-09-22T01:23:53.512Z,88.06
2018-09-22T01:26:22.207Z,87.93
2018-09-22T01:28:51.282Z,88.05
2018-09-22T01:31:20.039Z,88.46
2018-09-22T01:33:48.933Z,88.85
2018-09-22T01:36:17.525Z,87.19
2018-09-22T01:38:46.328Z,86.19
2018-09-22T01:41:16.032Z,85.60
2018-09-22T01:43:44.653Z,84.99
2018-09-22T01:46:13.800Z,84.94
2018-09-22T01:48:42.467Z,84.62
2018-09-22T01:51:11.108Z,84.20
2018-09-22T01:53:40.191Z,84.44
2018-09-22T01:56:09.203Z,83.93
2018-09-22T01:58:38.177Z,83.91
2018-09-22T02:01:06.809Z,83.19
2018-09-22T02:03:35.725Z,83.18
2018-09-22T02:06:04.514Z,83.38
2018-09-22T02:08:33.380Z,83.47
2018-09-22T02:11:02.172Z,83.09
2018-09-22T02:13:30.959Z,83.03
2018-09-22T02:15:59.873Z,82.99
2018-09-22T02:18:28.591Z,82.77
2018-09-22T02:20:57.473Z,82.47
2018-09-22T02:23:26.313Z,82.63
2018-09-22T02:25:55.241Z,83.03
2018-09-22T02:28:24.007Z,82.48
2018-09-22T02:30:53.011Z,82.97
2018-09-22T02:33:21.886Z,83.10
2018-09-22T02:35:50.620Z,83.08
2018-09-22T02:38:19.281Z,83.68
2018-09-22T02:40:48.152Z,83.39
2018-09-22T02:43:16.737Z,83.44
2018-09-22T02:45:45.459Z,83.79
2018-09-22T02:48:14.201Z,83.84
2018-09-22T02:50:42.906Z,83.68
2018-09-22T02:53:11.719Z,83.45
2018-09-22T02:55:40.395Z,83.62
2018-09-22T02:58:09.259Z,83.65
2018-09-22T03:00:37.917Z,83.72
2018-09-22T03:03:06.852Z,83.75
2018-09-22T03:05:35.591Z,83.72
2018-09-22T03:08:04.326Z,83.59
2018-09-22T03:10:33.033Z,83.70
2018-09-22T03:13:01.768Z,83.40
2018-09-22T03:15:30.724Z,83.55
2018-09-22T03:17:59.481Z,82.91
2018-09-22T03:20:28.492Z,82.35
2018-09-22T03:22:57.302Z,82.82
2018-09-22T03:25:26.268Z,82.65
2018-09-22T03:27:55.146Z,83.29
2018-09-22T03:30:24.036Z,80.29
2018-09-22T03:32:53.123Z,78.65
2018-09-22T03:35:21.829Z,77.11
2018-09-22T03:37:50.584Z,77.15
2018-09-22T03:40:19.329Z,77.87
2018-09-22T03:42:48.096Z,77.67
2018-09-22T03:45:16.878Z,78.56
2018-09-22T03:47:45.458Z,78.14
2018-09-22T03:50:14.381Z,78.48
2018-09-22T03:52:43.137Z,79.37
2018-09-22T03:55:18.522Z,79.59
2018-09-22T03:57:47.257Z,80.07
2018-09-22T04:00:15.954Z,80.53
2018-09-22T04:02:44.669Z,81.02
2018-09-22T04:05:13.658Z,81.69
2018-09-22T04:07:42.461Z,81.58
2018-09-22T04:10:11.221Z,81.87
2018-09-22T04:12:40.032Z,81.81
2018-09-22T04:15:09.026Z,81.62
2018-09-22T04:17:37.818Z,81.88
2018-09-22T04:20:06.575Z,81.75
2018-09-22T04:22:35.578Z,81.62
2018-09-22T04:25:04.239Z,81.84
2018-09-22T04:27:32.912Z,81.94
2018-09-22T04:30:01.621Z,81.88
2018-09-22T04:32:30.567Z,81.80
2018-09-22T04:34:59.572Z,82.14
2018-09-22T04:37:28.644Z,82.12
2018-09-22T04:39:57.356Z,82.39
2018-09-22T04:42:26.197Z,82.03
2018-09-22T04:44:54.789Z,81.79
2018-09-22T04:47:23.886Z,81.97
2018-09-22T04:49:52.678Z,82.24
2018-09-22T04:52:21.481Z,82.26
2018-09-22T04:54:50.235Z,82.88
2018-09-22T04:57:18.881Z,82.73
2018-09-22T04:59:47.637Z,82.95
2018-09-22T05:02:16.457Z,82.70
2018-09-22T05:04:45.283Z,82.57
2018-09-22T05:07:14.071Z,82.62
2018-09-22T05:09:42.726Z,82.36
2018-09-22T05:12:11.517Z,82.03
2018-09-22T05:14:40.314Z,81.92
2018-09-22T05:17:09.064Z,82.25
2018-09-22T05:19:37.665Z,81.97
2018-09-22T05:22:06.539Z,81.32
2018-09-22T05:24:35.339Z,80.06
2018-09-22T05:27:03.978Z,79.59
2018-09-22T05:29:32.784Z,78.95
2018-09-22T05:32:01.557Z,78.28
2018-09-22T05:34:30.545Z,77.68
2018-09-22T05:36:59.475Z,76.84
2018-09-22T05:39:28.321Z,76.84
2018-09-22T05:41:57.241Z,76.78
2018-09-22T05:44:26.074Z,77.63
2018-09-22T05:46:54.921Z,77.65
2018-09-22T05:49:23.632Z,77.08
2018-09-22T05:51:52.522Z,76.70
2018-09-22T05:54:21.108Z,76.27
2018-09-22T05:56:49.830Z,76.58
2018-09-22T05:59:18.642Z,75.66
2018-09-22T06:01:47.366Z,75.03
2018-09-22T06:04:16.264Z,75.02
2018-09-22T06:06:44.883Z,75.24
2018-09-22T06:09:13.747Z,75.50
2018-09-22T06:11:42.371Z,75.47
2018-09-22T06:14:11.347Z,74.58
2018-09-22T06:16:39.949Z,74.43
2018-09-22T06:19:08.739Z,74.03
2018-09-22T06:21:37.740Z,72.91
2018-09-22T06:24:06.461Z,73.03
2018-09-22T06:26:36.339Z,73.38
2018-09-22T06:29:14.277Z,73.01
2018-09-22T06:31:44.090Z,70.74
2018-09-22T06:34:12.898Z,71.88
2018-09-22T06:36:41.516Z,71.86
2018-09-22T06:39:11.339Z,72.31
2018-09-22T06:41:40.317Z,71.76
2018-09-22T06:44:09.210Z,71.79
2018-09-22T06:46:38.042Z,70.94
2018-09-22T06:49:06.687Z,71.23
2018-09-22T06:51:35.253Z,71.91
2018-09-22T06:54:04.081Z,72.06
2018-09-22T06:56:32.724Z,72.60
2018-09-22T06:59:01.385Z,72.64
2018-09-22T07:01:30.646Z,73.21
2018-09-22T07:03:59.447Z,73.90
2018-09-22T07:06:28.190Z,73.44
2018-09-22T07:08:56.882Z,72.43
2018-09-22T07:11:25.592Z,71.29
2018-09-22T07:13:54.252Z,70.11
2018-09-22T07:16:23.280Z,69.81
2018-09-22T07:18:51.971Z,69.94
2018-09-22T07:21:24.789Z,69.01
2018-09-22T07:23:53.470Z,68.62
2018-09-22T07:26:22.124Z,69.15
2018-09-22T07:28:50.980Z,68.79
2018-09-22T07:31:19.629Z,66.42
2018-09-22T07:33:48.429Z,65.87
2018-09-22T07:36:17.139Z,66.08
2018-09-22T07:38:46.095Z,65.47
2018-09-22T07:41:15.364Z,66.40
2018-09-22T07:43:44.243Z,67.20
2018-09-22T07:46:12.931Z,68.01
2018-09-22T07:48:41.977Z,68.24
2018-09-22T07:51:10.767Z,67.95
2018-09-22T07:53:39.918Z,68.25
2018-09-22T07:56:08.703Z,68.49
2018-09-22T07:58:37.380Z,68.99
2018-09-22T08:01:06.124Z,69.27
2018-09-22T08:03:34.814Z,69.33
2018-09-22T08:06:03.403Z,69.83
2018-09-22T08:08:32.054Z,68.87
2018-09-22T08:11:00.793Z,71.40
2018-09-22T08:13:29.553Z,72.13
2018-09-22T08:15:58.405Z,74.14
2018-09-22T08:18:27.113Z,75.06
2018-09-22T08:20:55.816Z,77.02
2018-09-22T08:23:24.648Z,77.08
2018-09-22T08:25:53.543Z,78.01
2018-09-22T08:28:22.415Z,77.48
2018-09-22T08:30:51.104Z,77.36
2018-09-22T08:33:20.027Z,78.02
2018-09-22T08:35:48.755Z,78.00
2018-09-22T08:38:17.437Z,77.70
2018-09-22T08:40:46.182Z,77.08
2018-09-22T08:43:15.009Z,76.41
2018-09-22T08:45:43.718Z,75.93
2018-09-22T08:48:12.384Z,74.84
2018-09-22T08:50:42.215Z,75.65
2018-09-22T08:53:10.986Z,76.11
2018-09-22T08:55:39.613Z,76.74
2018-09-22T08:58:08.301Z,78.75
2018-09-22T09:00:36.907Z,80.02
2018-09-22T09:03:05.763Z,80.59
2018-09-22T09:05:34.788Z,81.60
2018-09-22T09:08:03.630Z,82.01
2018-09-22T09:10:32.281Z,83.37
2018-09-22T09:13:01.074Z,83.29
2018-09-22T09:15:29.660Z,83.95
2018-09-22T09:17:58.568Z,84.21
2018-09-22T09:20:27.227Z,84.49
2018-09-22T09:22:55.967Z,84.45
2018-09-22T09:25:24.759Z,83.63
2018-09-22T09:27:53.381Z,83.15
2018-09-22T09:30:22.337Z,83.51
2018-09-22T09:32:50.968Z,83.44
2018-09-22T09:35:19.775Z,82.55
2018-09-22T09:37:48.701Z,83.28
2018-09-22T09:40:17.510Z,82.26
2018-09-22T09:42:46.254Z,81.85
2018-09-22T09:45:14.997Z,81.07
2018-09-22T09:47:43.805Z,79.58
2018-09-22T09:50:12.504Z,78.76
2018-09-22T09:52:41.340Z,78.96
2018-09-22T09:55:10.088Z,79.58
2018-09-22T09:57:39.196Z,80.18
2018-09-22T10:00:07.983Z,80.59
2018-09-22T10:02:36.900Z,81.12
2018-09-22T10:05:05.794Z,81.33
2018-09-22T10:07:34.788Z,80.14
2018-09-22T10:10:03.631Z,81.40
2018-09-22T10:12:32.271Z,80.84
2018-09-22T10:15:01.059Z,81.44
2018-09-22T10:17:29.745Z,81.13
2018-09-22T10:19:58.369Z,79.79
2018-09-22T10:22:27.070Z,78.24
2018-09-22T10:24:55.749Z,78.62
2018-09-22T10:27:24.390Z,77.22
2018-09-22T10:29:53.213Z,76.80
2018-09-22T10:32:22.270Z,77.02
2018-09-22T10:34:50.927Z,75.57
2018-09-22T10:37:19.605Z,75.72
2018-09-22T10:39:48.313Z,75.56
2018-09-22T10:42:17.295Z,75.53
2018-09-22T10:44:45.947Z,75.43
2018-09-22T10:47:14.723Z,76.13
2018-09-22T10:49:43.400Z,76.12
2018-09-22T10:52:12.485Z,76.28
2018-09-22T10:54:41.177Z,76.06
2018-09-22T10:57:09.921Z,75.77
2018-09-22T10:59:38.732Z,75.85
2018-09-22T11:02:07.795Z,75.00
2018-09-22T11:04:36.443Z,76.91
2018-09-22T11:07:05.696Z,77.30
2018-09-22T11:09:34.739Z,79.47
2018-09-22T11:12:03.353Z,80.92
2018-09-22T11:14:32.437Z,81.17
2018-09-22T11:17:01.063Z,80.31
2018-09-22T11:19:29.958Z,81.70
2018-09-22T11:21:58.675Z,82.18
2018-09-22T11:24:27.451Z,82.21
2018-09-22T11:26:56.245Z,83.23
2018-09-22T11:30:27.718Z,84.33
2018-09-22T11:32:56.434Z,85.68
2018-09-22T11:35:25.201Z,83.37
2018-09-22T11:37:53.780Z,83.85
2018-09-22T11:40:23.865Z,84.44
2018-09-22T11:42:52.880Z,84.00
2018-09-22T11:45:21.676Z,83.34
2018-09-22T11:47:50.326Z,82.22
2018-09-22T11:50:19.052Z,82.23
2018-09-22T11:52:47.953Z,80.73
2018-09-22T11:55:16.594Z,79.57
2018-09-22T11:57:45.177Z,79.42
2018-09-22T12:00:14.035Z,79.58
2018-09-22T12:02:42.753Z,78.80
2018-09-22T12:05:11.508Z,79.92
2018-09-22T12:07:40.189Z,77.44
2018-09-22T12:10:09.182Z,75.79
2018-09-22T12:12:38.229Z,73.28
2018-09-22T12:15:07.084Z,72.35
2018-09-22T12:17:35.987Z,71.96
2018-09-22T12:20:04.998Z,69.99
2018-09-22T12:22:33.656Z,69.38
2018-09-22T12:25:02.466Z,69.99
2018-09-22T12:27:31.254Z,70.65
2018-09-22T12:29:59.861Z,70.32
2018-09-22T12:32:28.556Z,70.92
2018-09-22T12:34:57.521Z,70.22
2018-09-22T12:37:26.206Z,70.20
2018-09-22T12:39:55.149Z,70.49
2018-09-22T12:42:23.924Z,70.10
2018-09-22T12:44:52.703Z,70.52
2018-09-22T12:47:21.414Z,70.85
2018-09-22T12:49:50.184Z,71.62
2018-09-22T12:52:18.959Z,72.48
2018-09-22T12:54:47.722Z,74.48
2018-09-22T12:57:16.779Z,74.32
2018-09-22T12:59:45.521Z,74.62
2018-09-22T13:02:14.318Z,74.60
2018-09-22T13:04:43.134Z,72.26
2018-09-22T13:07:11.911Z,73.04
2018-09-22T13:09:40.817Z,71.59
2018-09-22T13:12:09.434Z,70.48
2018-09-22T13:14:38.161Z,70.43
2018-09-22T13:17:07.128Z,72.16
2018-09-22T13:19:36.567Z,71.16
2018-09-22T13:22:05.496Z,71.48
2018-09-22T13:24:34.210Z,70.68
2018-09-22T13:27:02.999Z,69.67
2018-09-22T13:29:31.785Z,68.12
2018-09-22T13:32:00.596Z,66.85
2018-09-22T13:34:29.509Z,67.01
2018-09-22T13:36:58.377Z,68.11
2018-09-22T13:39:27.250Z,67.86
2018-09-22T13:41:56.001Z,68.57
2018-09-22T13:44:24.628Z,67.40
2018-09-22T13:46:53.414Z,68.67
2018-09-22T13:49:22.144Z,67.91
2018-09-22T13:51:51.219Z,66.21
2018-09-22T13:54:20.243Z,65.57
2018-09-22T13:56:49.017Z,65.25
2018-09-22T13:59:17.652Z,62.63
2018-09-22T14:01:46.431Z,60.06
2018-09-22T14:04:15.454Z,56.83
2018-09-22T14:06:44.171Z,51.50
2018-09-22T14:09:13.617Z,50.19
2018-09-22T14:11:42.587Z,50.20
2018-09-22T14:14:11.356Z,51.35
2018-09-22T14:16:40.059Z,51.48
2018-09-22T14:19:09.012Z,48.54
2018-09-22T14:21:38.022Z,49.60
2018-09-22T14:24:06.710Z,51.25
2018-09-22T14:26:35.696Z,52.34
2018-09-22T14:29:04.538Z,49.43
2018-09-22T14:31:33.339Z,50.58
2018-09-22T14:34:02.202Z,52.92
2018-09-22T14:36:31.153Z,51.41
2018-09-22T14:39:00.034Z,51.60
2018-09-22T14:41:28.943Z,52.86
2018-09-22T14:43:57.737Z,54.29
2018-09-22T14:46:26.807Z,54.42
2018-09-22T14:48:55.471Z,55.89
2018-09-22T14:51:24.345Z,57.26
2018-09-22T14:53:53.116Z,58.77
2018-09-22T14:56:21.792Z,59.59
2018-09-22T14:58:50.888Z,60.72
2018-09-22T15:01:19.568Z,61.37
2018-09-22T15:03:48.392Z,62.22
2018-09-22T15:06:17.044Z,62.86
2018-09-22T15:08:45.856Z,63.18
2018-09-22T15:11:14.929Z,63.41
2018-09-22T15:13:43.800Z,63.85
2018-09-22T15:16:12.513Z,63.00
2018-09-22T15:18:41.103Z,62.90
2018-09-22T15:21:09.988Z,63.26
2018-09-22T15:23:38.944Z,62.80
2018-09-22T15:26:07.670Z,62.55
2018-09-22T15:28:36.401Z,62.53
2018-09-22T15:31:05.253Z,63.44
2018-09-22T15:33:34.652Z,63.83
2018-09-22T15:36:03.843Z,64.37
2018-09-22T15:38:32.604Z,64.67
2018-09-22T15:41:01.538Z,64.52
2018-09-22T15:43:30.342Z,65.10
2018-09-22T15:45:59.362Z,65.14
2018-09-22T15:48:28.292Z,65.22
2018-09-22T15:50:56.995Z,65.64
2018-09-22T15:53:25.766Z,65.42
2018-09-22T15:55:54.478Z,65.49
2018-09-22T15:58:23.370Z,65.34
2018-09-22T16:00:52.218Z,64.74
2018-09-22T16:03:21.160Z,64.94
2018-09-22T16:05:50.107Z,64.24
2018-09-22T16:08:18.838Z,64.22
2018-09-22T16:10:47.785Z,64.45
2018-09-22T16:13:16.479Z,63.37
2018-09-22T16:15:45.255Z,62.96
2018-09-22T16:18:14.308Z,63.22
2018-09-22T16:20:42.929Z,63.49
2018-09-22T16:23:11.696Z,62.07
2018-09-22T16:25:40.366Z,62.11
2018-09-22T16:28:09.190Z,61.56
2018-09-22T16:30:37.959Z,60.33
2018-09-22T16:33:06.867Z,60.72
2018-09-22T16:35:36.043Z,59.68
2018-09-22T16:38:04.771Z,60.60
2018-09-22T16:40:33.454Z,59.92
2018-09-22T16:43:02.147Z,58.52
2018-09-22T16:45:31.107Z,58.25
2018-09-22T16:47:59.804Z,58.31
2018-09-22T16:50:28.683Z,58.31
2018-09-22T16:52:57.270Z,57.65
2018-09-22T16:55:25.948Z,57.44
2018-09-22T16:57:54.811Z,56.85
2018-09-22T17:00:23.796Z,56.22
2018-09-22T17:02:52.560Z,56.65
2018-09-22T17:05:21.233Z,56.69
2018-09-22T17:07:49.798Z,55.99
2018-09-22T17:10:18.776Z,54.94
2018-09-22T17:12:47.788Z,55.53
2018-09-22T17:15:16.605Z,55.99
2018-09-22T17:17:45.304Z,55.53
2018-09-22T17:20:13.896Z,55.87
2018-09-22T17:22:42.636Z,56.68
2018-09-22T17:25:11.526Z,55.81
2018-09-22T17:27:40.359Z,55.86
2018-09-22T17:30:09.059Z,56.20
2018-09-22T17:32:37.719Z,56.49
2018-09-22T17:35:06.645Z,55.64
2018-09-22T17:37:35.270Z,56.67
2018-09-22T17:40:03.969Z,56.16
2018-09-22T17:42:32.660Z,56.68
2018-09-22T17:45:01.521Z,56.75
2018-09-22T17:47:30.342Z,56.85
2018-09-22T17:49:59.068Z,55.96
2018-09-22T17:52:27.778Z,56.35
2018-09-22T17:54:56.710Z,56.24
2018-09-22T17:57:25.583Z,56.34
2018-09-22T17:59:54.355Z,56.57
2018-09-22T18:02:23.062Z,56.94
2018-09-22T18:04:51.827Z,56.86
2018-09-22T18:07:20.466Z,56.57
2018-09-22T18:09:49.302Z,56.32
2018-09-22T18:12:18.011Z,55.62
2018-09-22T18:14:46.714Z,55.93
2018-09-22T18:17:15.481Z,56.59
2018-09-22T18:19:44.151Z,55.93
2018-09-22T18:22:12.784Z,56.05
2018-09-22T18:24:41.508Z,55.99
2018-09-22T18:27:10.255Z,55.99
2018-09-22T18:29:39.264Z,55.82
2018-09-22T18:32:08.134Z,56.43
2018-09-22T18:34:37.073Z,56.89
2018-09-22T18:37:05.956Z,56.69
2018-09-22T18:39:34.747Z,56.53
2018-09-22T18:42:03.578Z,56.94
2018-09-22T18:44:32.216Z,57.19
2018-09-22T18:47:01.688Z,57.15
2018-09-22T18:49:30.315Z,56.51
2018-09-22T18:51:59.069Z,56.49
2018-09-22T18:54:27.930Z,56.06
2018-09-22T18:56:56.537Z,56.72
2018-09-22T18:59:25.233Z,56.90
2018-09-22T19:01:54.034Z,56.57
2018-09-22T19:04:22.716Z,56.64
2018-09-22T19:06:51.436Z,56.21
2018-09-22T19:09:20.342Z,56.89
2018-09-22T19:11:49.078Z,57.02
2018-09-22T19:14:28.078Z,56.59
2018-09-22T19:17:00.000Z,57.31
2018-09-22T19:19:35.245Z,57.11
2018-09-22T19:22:07.773Z,57.35
2018-09-22T19:25:11.043Z,57.03
2018-09-22T19:27:49.891Z,57.57
2018-09-22T19:30:29.950Z,57.30
2018-09-22T19:33:05.253Z,57.90
2018-09-22T19:35:40.331Z,58.27
2018-09-22T19:39:14.678Z,58.44
2018-09-22T19:41:49.644Z,58.60
2018-09-22T19:44:27.588Z,59.08
2018-09-22T19:47:02.162Z,59.06
2018-09-22T19:49:37.381Z,58.93
2018-09-22T19:52:10.364Z,59.67
2018-09-22T19:54:39.063Z,59.96
2018-09-22T19:57:07.843Z,60.25
2018-09-22T19:59:36.731Z,60.38
2018-09-22T20:02:05.605Z,60.08
2018-09-22T20:04:34.257Z,60.22
2018-09-22T20:07:03.029Z,60.83
2018-09-22T20:09:31.766Z,60.63
2018-09-22T20:12:00.565Z,60.38
2018-09-22T20:14:29.686Z,60.52
2018-09-22T20:16:58.680Z,60.80
2018-09-22T20:19:27.672Z,60.24
2018-09-22T20:21:56.559Z,60.27
2018-09-22T20:24:31.913Z,59.92
2018-09-22T20:27:00.828Z,60.17
2018-09-22T20:29:29.743Z,59.99
2018-09-22T20:31:58.584Z,60.31
2018-09-22T20:34:27.289Z,60.41
2018-09-22T20:36:56.239Z,60.87
2018-09-22T20:39:24.887Z,60.59
2018-09-22T20:41:53.854Z,60.43
2018-09-22T20:44:22.706Z,60.13
2018-09-22T20:46:51.336Z,59.47
2018-09-22T20:49:20.023Z,59.63
2018-09-22T20:51:48.765Z,59.53
2018-09-22T20:54:17.442Z,59.79
2018-09-22T20:56:46.235Z,59.61
2018-09-22T20:59:14.812Z,59.45
2018-09-22T21:01:43.705Z,59.62
2018-09-22T21:04:12.497Z,59.46
2018-09-22T21:06:41.640Z,59.89
2018-09-22T21:09:11.847Z,59.82
2018-09-22T21:11:41.276Z,60.22
2018-09-22T21:14:10.201Z,60.37
2018-09-22T21:16:39.235Z,60.57
2018-09-22T21:19:07.808Z,60.10
2018-09-22T21:21:36.734Z,60.31
2018-09-22T21:24:05.570Z,60.36
2018-09-22T21:26:34.177Z,60.29
2018-09-22T21:29:02.818Z,60.10
2018-09-22T21:31:31.795Z,60.37
2018-09-22T21:34:00.479Z,60.71
2018-09-22T21:36:29.447Z,60.57
2018-09-22T21:38:58.393Z,60.74
2018-09-22T21:41:27.189Z,60.52
2018-09-22T21:43:56.054Z,60.75
2018-09-22T21:46:24.848Z,61.05
2018-09-22T21:48:53.775Z,61.03
2018-09-22T21:51:22.480Z,61.27
2018-09-22T21:53:51.061Z,61.45
2018-09-22T21:56:19.896Z,61.05
2018-09-22T21:58:48.706Z,61.66
2018-09-22T22:01:22.615Z,61.62
2018-09-22T22:03:51.411Z,61.95
2018-09-22T22:06:20.168Z,61.83
2018-09-22T22:08:48.965Z,62.22
2018-09-22T22:11:17.734Z,62.19
2018-09-22T22:13:46.311Z,62.43
2018-09-22T22:16:14.968Z,62.37
2018-09-22T22:18:44.230Z,62.23
2018-09-22T22:21:13.144Z,62.69
2018-09-22T22:23:41.951Z,62.24
2018-09-22T22:26:10.901Z,62.58
2018-09-22T22:28:39.558Z,62.36
2018-09-22T22:31:08.198Z,62.66
2018-09-22T22:33:36.965Z,62.78
2018-09-22T22:36:05.960Z,62.89
2018-09-22T22:38:34.759Z,63.09
2018-09-22T22:41:03.659Z,63.05
2018-09-22T22:43:32.366Z,62.76
2018-09-22T22:46:01.148Z,62.57
2018-09-22T22:48:29.805Z,62.75
2018-09-22T22:50:58.700Z,62.67
2018-09-22T22:53:27.343Z,62.64
2018-09-22T22:55:56.262Z,62.67
2018-09-22T22:58:24.874Z,62.71
2018-09-22T23:00:53.999Z,62.61
2018-09-22T23:03:22.754Z,62.83
2018-09-22T23:05:51.394Z,62.73
2018-09-22T23:08:20.294Z,62.92
2018-09-22T23:10:48.957Z,63.20
2018-09-22T23:13:17.785Z,63.12
2018-09-22T23:15:46.463Z,63.37
2018-09-22T23:18:15.291Z,63.42
2018-09-22T23:20:44.155Z,64.03
2018-09-22T23:23:12.924Z,63.70
2018-09-22T23:25:41.763Z,64.01
2018-09-22T23:28:10.605Z,64.51
2018-09-22T23:30:39.517Z,64.89
2018-09-22T23:33:08.462Z,65.23
2018-09-22T23:35:37.371Z,65.05
2018-09-22T23:38:06.321Z,65.23
2018-09-22T23:40:34.999Z,65.61
2018-09-22T23:43:03.695Z,65.70
2018-09-22T23:45:32.699Z,66.05
2018-09-22T23:48:01.334Z,65.79
2018-09-22T23:50:29.874Z,66.12
2018-09-22T23:52:58.725Z,65.78
2018-09-22T23:55:27.739Z,66.22
2018-09-22T23:57:56.344Z,66.19
